createdAt,value
2023-04-16T00:00:14.821Z,22.98
2023-04-16T00:02:43.060Z,23.40
2023-04-16T00:05:10.719Z,21.88
2023-04-16T00:07:38.389Z,19.27
2023-04-16T00:10:07.025Z,20.38
2023-04-16T00:12:34.593Z,19.08
2023-04-16T00:15:02.183Z,17.83
2023-04-16T00:17:29.882Z,18.40
2023-04-16T00:19:57.958Z,19.80
2023-04-16T00:22:25.540Z,20.98
2023-04-16T00:24:52.963Z,21.38
2023-04-16T00:27:20.746Z,21.77
2023-04-16T00:29:48.085Z,15.20
2023-04-16T00:32:15.515Z,17.90
2023-04-16T00:34:45.118Z,23.83
2023-04-16T00:37:12.873Z,23.13
2023-04-16T00:39:40.205Z,28.83
2023-04-16T00:42:08.301Z,32.33
2023-04-16T00:44:37.689Z,31.38
2023-04-16T00:47:05.275Z,19.15
2023-04-16T00:49:33.007Z,18.40
2023-04-16T00:52:00.881Z,18.73
2023-04-16T00:54:28.409Z,19.30
2023-04-16T00:56:56.364Z,16.40
2023-04-16T00:59:24.043Z,15.60
2023-04-16T01:01:51.648Z,16.63
2023-04-16T01:04:19.846Z,32.15
2023-04-16T01:06:47.459Z,32.28
2023-04-16T01:09:14.805Z,35.63
2023-04-16T01:11:44.496Z,51.47
2023-04-16T01:14:11.844Z,47.08
2023-04-16T01:16:42.243Z,43.97
2023-04-16T01:19:09.472Z,23.48
2023-04-16T01:21:38.050Z,24.00
2023-04-16T01:24:05.604Z,23.38
2023-04-16T01:26:32.815Z,22.42
2023-04-16T01:29:00.213Z,26.55
2023-04-16T01:31:27.378Z,23.08
2023-04-16T01:33:54.764Z,22.83
2023-04-16T01:36:23.508Z,23.70
2023-04-16T01:38:50.931Z,24.23
2023-04-16T01:41:18.130Z,24.20
2023-04-16T01:43:45.154Z,24.50
2023-04-16T01:46:15.838Z,23.83
2023-04-16T01:51:10.429Z,22.27
2023-04-16T01:53:37.795Z,22.10
2023-04-16T01:56:05.586Z,23.35
2023-04-16T01:58:33.178Z,21.65
2023-04-16T02:01:00.313Z,21.05
2023-04-16T02:03:27.682Z,21.63
2023-04-16T02:05:54.982Z,20.15
2023-04-16T02:08:22.282Z,19.35
2023-04-16T02:10:50.345Z,19.90
2023-04-16T02:13:17.600Z,19.75
2023-04-16T02:15:48.268Z,18.67
2023-04-16T02:20:47.340Z,19.45
2023-04-16T02:23:17.073Z,20.58
2023-04-16T02:25:47.845Z,22.35
2023-04-16T02:28:15.983Z,20.90
2023-04-16T02:30:44.454Z,17.77
2023-04-16T02:33:12.274Z,16.80
2023-04-16T02:35:39.718Z,19.38
2023-04-16T02:38:07.119Z,18.55
2023-04-16T02:40:34.243Z,18.42
2023-04-16T02:43:02.585Z,18.48
2023-04-16T02:45:31.788Z,18.33
2023-04-16T02:47:59.680Z,16.63
2023-04-16T02:50:26.786Z,14.63
2023-04-16T02:52:54.016Z,13.85
2023-04-16T02:55:22.416Z,14.10
2023-04-16T02:57:49.549Z,14.65
2023-04-16T03:00:18.896Z,15.55
2023-04-16T03:02:46.303Z,13.88
2023-04-16T03:05:13.473Z,14.48
2023-04-16T03:07:41.068Z,14.40
2023-04-16T03:10:09.349Z,15.77
2023-04-16T03:12:36.613Z,27.10
2023-04-16T03:15:04.628Z,28.05
2023-04-16T03:17:31.740Z,21.10
2023-04-16T03:19:59.011Z,22.70
2023-04-16T03:22:26.270Z,20.92
2023-04-16T03:24:55.746Z,17.25
2023-04-16T03:27:22.818Z,19.38
2023-04-16T03:29:50.005Z,16.95
2023-04-16T03:32:17.634Z,16.30
2023-04-16T03:34:45.835Z,16.33
2023-04-16T03:37:13.117Z,17.23
2023-04-16T03:39:40.522Z,16.83
2023-04-16T03:42:07.767Z,15.70
2023-04-16T03:44:34.885Z,15.90
2023-04-16T03:47:02.638Z,15.65
2023-04-16T03:49:29.688Z,14.27
2023-04-16T03:51:56.936Z,13.10
2023-04-16T03:54:24.091Z,13.32
2023-04-16T03:56:52.708Z,14.32
2023-04-16T03:59:19.819Z,16.25
2023-04-16T04:01:47.066Z,18.52
2023-04-16T04:04:14.238Z,19.10
2023-04-16T04:06:41.567Z,17.63
2023-04-16T04:09:09.130Z,16.77
2023-04-16T04:11:37.845Z,16.63
2023-04-16T04:14:06.897Z,16.55
2023-04-16T04:16:34.062Z,16.95
2023-04-16T04:19:01.411Z,17.08
2023-04-16T04:21:30.106Z,15.90
2023-04-16T04:23:57.502Z,17.23
2023-04-16T04:26:24.801Z,16.05
2023-04-16T04:28:51.936Z,17.00
2023-04-16T04:31:19.130Z,18.60
2023-04-16T04:33:46.583Z,21.17
2023-04-16T04:36:13.661Z,20.30
2023-04-16T04:38:40.816Z,17.33
2023-04-16T04:41:07.814Z,16.85
2023-04-16T04:43:35.060Z,15.00
2023-04-16T04:46:02.211Z,16.50
2023-04-16T04:48:29.631Z,15.07
2023-04-16T04:50:58.494Z,14.95
2023-04-16T04:53:28.575Z,14.25
2023-04-16T04:56:09.263Z,16.13
2023-04-16T04:58:39.614Z,14.23
2023-04-16T05:01:07.239Z,14.38
2023-04-16T05:03:35.069Z,14.65
2023-04-16T05:06:02.867Z,14.48
2023-04-16T05:08:32.323Z,14.05
2023-04-16T05:11:00.104Z,16.65
2023-04-16T05:13:27.997Z,17.85
2023-04-16T05:15:55.374Z,16.73
2023-04-16T05:18:22.755Z,15.80
2023-04-16T05:20:50.675Z,15.98
2023-04-16T05:23:18.925Z,15.50
2023-04-16T05:25:46.086Z,15.30
2023-04-16T05:28:13.506Z,14.85
2023-04-16T05:30:40.762Z,15.10
2023-04-16T05:35:49.443Z,10.95
2023-04-16T05:38:19.602Z,10.30
2023-04-16T05:40:50.336Z,11.65
2023-04-16T05:43:18.097Z,11.68
2023-04-16T05:45:45.334Z,11.25
2023-04-16T05:48:15.220Z,12.45
2023-04-16T05:50:42.970Z,13.20
2023-04-16T05:53:10.398Z,13.95
2023-04-16T05:55:38.783Z,13.77
2023-04-16T05:58:13.216Z,14.30
2023-04-16T06:00:42.017Z,13.48
2023-04-16T06:03:09.353Z,13.68
2023-04-16T06:05:36.680Z,13.75
2023-04-16T06:08:04.181Z,13.48
2023-04-16T06:10:35.934Z,11.95
2023-04-16T06:13:03.491Z,12.73
2023-04-16T06:15:30.710Z,12.85
2023-04-16T06:18:00.693Z,12.85
2023-04-16T06:20:29.319Z,10.82
2023-04-16T06:22:56.647Z,11.82
2023-04-16T06:25:23.776Z,11.73
2023-04-16T06:27:51.078Z,11.90
2023-04-16T06:30:20.046Z,13.73
2023-04-16T06:32:47.220Z,12.48
2023-04-16T06:35:14.607Z,11.63
2023-04-16T06:37:42.053Z,12.13
2023-04-16T06:40:09.949Z,10.70
2023-04-16T06:42:39.770Z,10.25
2023-04-16T06:45:20.033Z,11.47
2023-04-16T06:47:52.668Z,11.73
2023-04-16T06:50:20.547Z,9.88
2023-04-16T06:52:48.911Z,9.55
2023-04-16T06:55:16.784Z,9.30
2023-04-16T06:57:44.254Z,11.73
2023-04-16T07:00:16.732Z,11.88
2023-04-16T07:02:44.169Z,13.80
2023-04-16T07:05:15.255Z,14.20
2023-04-16T07:07:43.269Z,9.65
2023-04-16T07:10:11.679Z,10.50
2023-04-16T07:12:39.448Z,9.00
2023-04-16T07:15:07.935Z,8.63
2023-04-16T07:17:42.982Z,9.50
2023-04-16T07:20:10.811Z,8.48
2023-04-16T07:22:38.491Z,7.53
2023-04-16T07:25:08.604Z,8.63
2023-04-16T07:27:35.929Z,9.52
2023-04-16T07:30:03.481Z,9.27
2023-04-16T07:32:31.190Z,10.20
2023-04-16T07:34:58.909Z,9.95
2023-04-16T07:40:19.246Z,11.98
2023-04-16T07:42:50.984Z,11.05
2023-04-16T07:45:24.530Z,10.65
2023-04-16T07:47:52.804Z,10.02
2023-04-16T07:53:10.422Z,10.68
2023-04-16T07:58:22.683Z,9.75
2023-04-16T08:00:51.512Z,10.35
2023-04-16T08:06:01.737Z,9.68
2023-04-16T08:08:30.576Z,10.95
2023-04-16T08:10:59.743Z,11.13
2023-04-16T08:13:28.320Z,9.48
2023-04-16T08:15:56.315Z,9.90
2023-04-16T08:23:47.830Z,13.13
2023-04-16T08:26:24.573Z,12.20
2023-04-16T08:37:31.167Z,11.45
2023-04-16T08:39:59.911Z,12.57
2023-04-16T08:42:34.669Z,12.05
2023-04-16T08:45:30.654Z,13.45
2023-04-16T08:47:59.734Z,14.00
2023-04-16T08:50:27.142Z,13.68
2023-04-16T08:53:06.499Z,14.70
2023-04-16T08:55:41.861Z,13.45
2023-04-16T08:58:16.789Z,13.55
2023-04-16T09:00:53.764Z,12.88
2023-04-16T09:03:21.993Z,13.40
2023-04-16T09:05:49.924Z,11.80
2023-04-16T09:08:18.319Z,11.55
2023-04-16T09:10:49.933Z,11.13
2023-04-16T09:21:40.081Z,8.85
2023-04-16T09:24:09.363Z,9.07
2023-04-16T09:26:46.638Z,9.30
2023-04-16T09:29:33.359Z,9.55
2023-04-16T09:32:15.379Z,11.00
2023-04-16T09:35:08.936Z,9.98
2023-04-16T09:37:39.235Z,8.95
2023-04-16T09:40:12.353Z,8.10
2023-04-16T09:45:27.141Z,7.57
2023-04-16T09:47:57.093Z,8.13
2023-04-16T09:56:13.445Z,9.82
2023-04-16T09:58:42.384Z,9.10
2023-04-16T10:01:12.177Z,8.68
2023-04-16T10:06:33.246Z,12.45
2023-04-16T10:14:33.590Z,5.82
2023-04-16T10:17:06.263Z,7.05
2023-04-16T10:25:07.806Z,5.78
2023-04-16T10:27:45.253Z,6.32
2023-04-16T10:44:23.193Z,7.88
2023-04-16T10:49:40.080Z,10.45
2023-04-16T10:57:54.724Z,7.40
2023-04-16T11:00:25.258Z,7.05
2023-04-16T11:02:56.879Z,8.02
2023-04-16T11:05:27.040Z,7.07
2023-04-16T11:07:54.467Z,6.10
2023-04-16T11:10:22.728Z,7.03
2023-04-16T11:15:27.103Z,6.97
2023-04-16T11:17:54.925Z,7.32
2023-04-16T11:25:59.108Z,7.75
2023-04-16T11:28:40.087Z,6.60
2023-04-16T11:31:20.392Z,6.70
2023-04-16T11:33:48.168Z,6.00
2023-04-16T11:36:27.436Z,6.40
2023-04-16T11:39:09.576Z,5.43
2023-04-16T11:47:24.094Z,7.13
2023-04-16T11:50:03.491Z,8.50
2023-04-16T12:03:19.989Z,12.80
2023-04-16T12:05:48.566Z,9.25
2023-04-16T12:08:29.685Z,9.63
2023-04-16T12:10:57.034Z,8.48
2023-04-16T12:13:24.388Z,16.20
2023-04-16T12:16:02.365Z,10.02
2023-04-16T12:18:29.695Z,9.07
2023-04-16T12:20:57.274Z,8.93
2023-04-16T12:23:26.059Z,12.23
2023-04-16T12:25:59.349Z,10.10
2023-04-16T12:28:32.042Z,12.52
2023-04-16T12:31:00.787Z,11.90
2023-04-16T12:33:30.665Z,7.78
2023-04-16T12:35:59.478Z,6.65
2023-04-16T12:38:27.836Z,7.80
2023-04-16T12:40:57.391Z,7.22
2023-04-16T12:43:25.560Z,7.18
2023-04-16T12:45:54.799Z,7.22
2023-04-16T12:48:27.437Z,7.38
2023-04-16T12:59:12.821Z,6.65
2023-04-16T13:01:40.994Z,7.28
2023-04-16T13:07:00.520Z,7.63
2023-04-16T13:09:30.289Z,7.47
2023-04-16T13:14:49.050Z,5.75
2023-04-16T13:17:29.114Z,5.63
2023-04-16T13:22:42.736Z,5.88
2023-04-16T13:25:11.443Z,5.55
2023-04-16T13:27:40.792Z,5.95
2023-04-16T13:30:09.948Z,5.90
2023-04-16T13:32:37.770Z,5.90
2023-04-16T13:40:14.900Z,7.57
2023-04-16T13:42:43.630Z,7.50
2023-04-16T13:45:13.952Z,7.80
2023-04-16T13:47:42.865Z,7.25
2023-04-16T13:50:38.117Z,6.65
2023-04-16T13:55:50.590Z,9.27
2023-04-16T13:58:19.347Z,9.02
2023-04-16T14:06:21.108Z,9.13
2023-04-16T14:09:12.066Z,8.98
2023-04-16T14:14:21.443Z,8.52
2023-04-16T14:16:58.566Z,9.27
2023-04-16T14:19:26.822Z,9.40
2023-04-16T14:22:08.708Z,9.52
2023-04-16T14:30:14.975Z,9.32
2023-04-16T14:35:31.554Z,8.95
2023-04-16T14:38:08.501Z,9.50
2023-04-16T14:43:33.798Z,10.00
2023-04-16T14:46:26.242Z,11.30
2023-04-16T14:51:51.123Z,14.70
2023-04-16T14:54:27.699Z,13.70
2023-04-16T14:57:11.396Z,14.13
2023-04-16T15:02:44.513Z,12.50
2023-04-16T15:05:19.754Z,14.13
2023-04-16T15:10:34.016Z,15.00
2023-04-16T15:13:03.520Z,15.73
2023-04-16T15:15:32.321Z,16.55
2023-04-16T15:20:51.056Z,17.95
2023-04-16T15:23:27.362Z,17.88
2023-04-16T15:28:51.189Z,21.25
2023-04-16T15:31:21.179Z,21.50
2023-04-16T15:36:32.880Z,24.75
2023-04-16T15:39:02.070Z,24.23
2023-04-16T15:41:32.801Z,28.60
2023-04-16T15:44:02.320Z,22.90
2023-04-16T15:46:43.617Z,22.67
2023-04-16T15:52:04.828Z,17.40
2023-04-16T16:15:35.990Z,22.08
2023-04-16T16:21:36.092Z,21.27
2023-04-16T16:24:06.909Z,19.10
2023-04-16T16:26:35.738Z,21.20
2023-04-16T16:29:05.714Z,21.63
2023-04-16T16:31:36.014Z,27.30
2023-04-16T16:34:03.710Z,29.70
2023-04-16T16:36:33.284Z,25.83
2023-04-16T16:39:03.518Z,28.15
2023-04-16T16:41:31.325Z,28.83
2023-04-16T16:43:59.175Z,28.58
2023-04-16T16:46:28.096Z,31.77
2023-04-16T16:48:55.626Z,28.65
2023-04-16T16:51:23.926Z,33.83
2023-04-16T16:53:51.350Z,35.45
2023-04-16T16:56:21.487Z,33.80
2023-04-16T17:01:20.054Z,35.63
2023-04-16T17:03:47.838Z,34.15
2023-04-16T17:06:15.732Z,31.52
2023-04-16T17:08:43.286Z,31.40
2023-04-16T17:11:10.907Z,30.17
2023-04-16T17:13:38.464Z,30.38
2023-04-16T17:16:07.270Z,38.55
2023-04-16T17:24:50.053Z,42.47
2023-04-16T17:33:11.852Z,39.08
2023-04-16T17:35:40.894Z,37.20
2023-04-16T17:38:11.239Z,35.85
2023-04-16T17:40:38.623Z,35.35
2023-04-16T17:43:09.937Z,34.65
2023-04-16T17:45:43.705Z,37.55
2023-04-16T17:48:11.357Z,41.08
2023-04-16T17:50:39.795Z,43.70
2023-04-16T17:53:08.557Z,57.97
2023-04-16T17:55:35.919Z,61.50
2023-04-16T17:58:04.491Z,71.68
2023-04-16T18:00:32.177Z,69.50
2023-04-16T18:03:00.063Z,67.65
2023-04-16T18:05:28.775Z,61.17
2023-04-16T18:07:56.821Z,58.95
2023-04-16T18:10:24.722Z,60.60
2023-04-16T18:13:00.234Z,58.80
2023-04-16T18:18:16.514Z,55.90
2023-04-16T18:23:24.956Z,46.10
2023-04-16T18:25:54.832Z,45.08
2023-04-16T18:28:32.325Z,46.90
2023-04-16T18:33:58.544Z,49.60
2023-04-16T18:36:31.295Z,51.47
2023-04-16T18:39:08.382Z,51.83
2023-04-16T18:41:37.568Z,45.47
2023-04-16T18:44:06.546Z,42.88
2023-04-16T18:46:35.881Z,36.63
2023-04-16T18:49:13.373Z,33.05
2023-04-16T18:51:44.142Z,35.72
2023-04-16T19:05:29.516Z,27.33
2023-04-16T19:08:08.557Z,31.65
2023-04-16T19:10:45.652Z,31.30
2023-04-16T19:16:07.159Z,31.42
2023-04-16T19:18:36.653Z,29.33
2023-04-16T19:21:05.664Z,28.27
2023-04-16T19:51:27.698Z,29.42
2023-04-16T19:59:17.848Z,26.70
2023-04-16T20:07:14.618Z,28.60
2023-04-16T20:09:51.167Z,29.60
2023-04-16T20:12:19.801Z,28.05
2023-04-16T20:14:51.125Z,27.58
2023-04-16T20:20:16.540Z,27.70
2023-04-16T20:25:33.320Z,26.95
2023-04-16T20:28:00.592Z,25.00
2023-04-16T20:30:29.630Z,25.30
2023-04-16T20:32:59.546Z,25.52
2023-04-16T20:35:27.396Z,24.27
2023-04-16T20:37:54.685Z,24.80
2023-04-16T20:40:27.635Z,25.17
2023-04-16T20:42:58.356Z,25.92
2023-04-16T20:48:01.605Z,26.98
2023-04-16T20:50:34.089Z,33.63
2023-04-16T20:53:05.461Z,37.00
2023-04-16T20:55:36.843Z,37.97
2023-04-16T20:58:08.018Z,38.00
2023-04-16T21:00:38.292Z,41.30
2023-04-16T21:05:58.106Z,40.53
2023-04-16T21:08:28.711Z,43.10
2023-04-16T21:13:49.146Z,38.00
2023-04-16T21:16:28.360Z,36.08
2023-04-16T21:18:59.271Z,34.35
2023-04-16T21:21:31.783Z,32.80
2023-04-16T21:24:02.625Z,35.38
2023-04-16T21:26:30.817Z,31.38
2023-04-16T21:28:59.463Z,32.55
2023-04-16T21:31:33.057Z,31.08
2023-04-16T21:34:01.459Z,31.95
2023-04-16T21:36:34.015Z,35.40
2023-04-16T21:39:03.336Z,29.88
2023-04-16T21:41:31.174Z,31.20
2023-04-16T21:43:59.410Z,32.45
2023-04-16T21:46:29.194Z,34.78
2023-04-16T21:48:57.043Z,34.77
2023-04-16T21:51:29.929Z,35.38
2023-04-16T21:53:57.902Z,36.78
2023-04-16T21:56:40.975Z,34.70
2023-04-16T21:59:16.370Z,33.15
2023-04-16T22:01:53.678Z,32.83
2023-04-16T22:04:26.831Z,30.98
2023-04-16T22:06:58.151Z,28.08
2023-04-16T22:12:16.434Z,28.58
2023-04-16T22:14:55.678Z,26.20
2023-04-16T22:17:32.323Z,22.48
2023-04-16T22:22:39.253Z,21.75
2023-04-16T22:25:07.204Z,21.23
2023-04-16T22:27:39.897Z,20.60
2023-04-16T22:30:08.915Z,21.55
2023-04-16T22:32:50.495Z,21.13
2023-04-16T22:35:20.348Z,22.20
2023-04-16T22:37:48.006Z,21.58
2023-04-16T22:40:21.802Z,22.27
2023-04-16T22:42:49.439Z,22.90
2023-04-16T22:45:17.252Z,21.48
2023-04-16T22:47:46.505Z,23.40
2023-04-16T22:50:16.142Z,22.63
2023-04-16T22:52:44.215Z,25.38
2023-04-16T22:55:23.298Z,27.20
2023-04-16T22:57:52.006Z,27.70
2023-04-16T23:03:09.561Z,29.70
2023-04-16T23:05:37.300Z,31.88
2023-04-16T23:08:05.252Z,30.70
2023-04-16T23:10:33.630Z,29.15
2023-04-16T23:15:54.434Z,25.67
2023-04-16T23:21:08.378Z,24.40
2023-04-16T23:23:39.748Z,24.40
2023-04-16T23:26:13.651Z,23.02
2023-04-16T23:28:52.117Z,23.38
2023-04-16T23:31:20.963Z,22.27
2023-04-16T23:33:49.485Z,22.52
2023-04-16T23:36:18.060Z,20.95
2023-04-16T23:38:49.282Z,21.05
2023-04-16T23:41:27.478Z,16.00
2023-04-16T23:43:56.400Z,15.80
2023-04-16T23:46:26.956Z,16.90
2023-04-16T23:51:26.511Z,17.67
2023-04-16T23:53:59.285Z,18.80
2023-04-16T23:56:27.103Z,18.35
2023-04-16T23:58:57.784Z,18.25
